createdAt,value
2017-04-02T00:00:43.474Z,0
2017-04-02T00:01:53.696Z,0
2017-04-02T00:03:03.454Z,0
2017-04-02T00:04:13.404Z,0
2017-04-02T00:05:23.642Z,0
2017-04-02T00:06:33.557Z,0
2017-04-02T00:07:43.796Z,0
2017-04-02T00:08:54.064Z,0
2017-04-02T00:10:04.298Z,0
2017-04-02T00:11:13.902Z,0
2017-04-02T00:12:23.853Z,0
2017-04-02T00:13:34.102Z,0
2017-04-02T00:14:44.168Z,0
2017-04-02T00:15:54.080Z,0
2017-04-02T00:17:04.057Z,0
2017-04-02T00:18:13.957Z,0
2017-04-02T00:19:24.194Z,0
2017-04-02T00:20:34.597Z,0
2017-04-02T00:21:44.511Z,0
2017-04-02T00:22:54.725Z,0
2017-04-02T00:24:04.687Z,0
2017-04-02T00:25:14.596Z,0
2017-04-02T00:26:24.657Z,0
2017-04-02T00:27:34.627Z,0
2017-04-02T00:28:43.915Z,0
2017-04-02T00:29:53.558Z,0
2017-04-02T00:31:03.785Z,0
2017-04-02T00:32:13.258Z,0
2017-04-02T00:33:22.861Z,0
2017-04-02T00:34:32.858Z,0
2017-04-02T00:35:42.764Z,0
2017-04-02T00:36:53.012Z,0
2017-04-02T00:38:03.076Z,0
2017-04-02T00:39:12.667Z,0
2017-04-02T00:40:22.581Z,0
2017-04-02T00:41:31.872Z,0
2017-04-02T00:42:41.774Z,0
2017-04-02T00:43:51.523Z,0
2017-04-02T00:45:01.525Z,0
2017-04-02T00:46:11.173Z,0
2017-04-02T00:47:21.169Z,0
2017-04-02T00:48:31.406Z,0
2017-04-02T00:49:41.776Z,0
2017-04-02T00:50:52.021Z,0
2017-04-02T00:52:01.662Z,0
2017-04-02T00:53:11.580Z,0
2017-04-02T00:54:21.495Z,0
2017-04-02T00:55:31.873Z,0
2017-04-02T00:56:41.475Z,0
2017-04-02T00:57:51.103Z,0
2017-04-02T00:59:00.704Z,0
2017-04-02T01:00:09.699Z,0
2017-04-02T01:01:19.774Z,0
2017-04-02T01:02:30.208Z,0
2017-04-02T01:03:40.130Z,0
2017-04-02T01:04:49.420Z,0
2017-04-02T01:05:59.336Z,0
2017-04-02T01:07:09.698Z,0
2017-04-02T01:08:19.607Z,0
2017-04-02T01:09:29.830Z,0
2017-04-02T01:10:39.799Z,0
2017-04-02T01:11:50.011Z,0
2017-04-02T01:13:00.377Z,0
2017-04-02T01:14:10.307Z,0
2017-04-02T01:15:20.210Z,0
2017-04-02T01:16:30.123Z,0
2017-04-02T01:17:40.054Z,0
2017-04-02T01:18:50.191Z,0
2017-04-02T01:20:00.113Z,0
2017-04-02T01:21:10.358Z,0
2017-04-02T01:22:20.053Z,0
2017-04-02T01:23:30.263Z,0
2017-04-02T01:24:40.382Z,0
2017-04-02T01:25:50.597Z,0
2017-04-02T01:27:00.838Z,0
2017-04-02T01:28:10.759Z,0
2017-04-02T01:29:20.659Z,0
2017-04-02T01:30:30.434Z,0
2017-04-02T01:31:40.348Z,0
2017-04-02T01:32:49.951Z,0
2017-04-02T01:33:59.549Z,0
2017-04-02T01:35:09.775Z,0
2017-04-02T01:36:19.546Z,0
2017-04-02T01:37:29.453Z,0
2017-04-02T01:38:39.355Z,0
2017-04-02T01:39:49.260Z,0
2017-04-02T01:40:59.482Z,0
2017-04-02T01:42:09.139Z,0
2017-04-02T01:43:19.060Z,0
2017-04-02T01:44:28.995Z,0
2017-04-02T01:45:39.220Z,0
2017-04-02T01:46:48.849Z,0
2017-04-02T01:47:57.983Z,0
2017-04-02T01:49:07.892Z,0
2017-04-02T01:50:18.104Z,0
2017-04-02T01:51:28.323Z,0
2017-04-02T01:52:38.227Z,0
2017-04-02T01:53:48.588Z,0
2017-04-02T01:54:58.516Z,0
2017-04-02T01:56:08.119Z,0
2017-04-02T01:57:17.734Z,0
2017-04-02T01:58:27.689Z,0
2017-04-02T01:59:37.439Z,0
2017-04-02T02:00:47.078Z,0
2017-04-02T02:01:56.987Z,0
2017-04-02T02:03:07.206Z,0
2017-04-02T02:04:17.123Z,0
2017-04-02T02:05:26.573Z,0
2017-04-02T02:06:37.158Z,0
2017-04-02T02:07:47.070Z,0
2017-04-02T02:08:57.318Z,0
2017-04-02T02:10:06.932Z,0
2017-04-02T02:11:16.955Z,0
2017-04-02T02:12:26.565Z,0
2017-04-02T02:13:36.481Z,0
2017-04-02T02:14:46.117Z,0
2017-04-02T02:15:56.029Z,0
2017-04-02T02:17:06.336Z,0
2017-04-02T02:18:16.242Z,0
2017-04-02T02:19:26.149Z,0
2017-04-02T02:20:36.363Z,0
2017-04-02T02:21:46.268Z,0
2017-04-02T02:22:56.271Z,0
2017-04-02T02:24:05.567Z,0
2017-04-02T02:25:15.517Z,0
2017-04-02T02:26:25.439Z,0
2017-04-02T02:27:35.042Z,0
2017-04-02T02:28:45.103Z,0
2017-04-02T02:29:55.319Z,0
2017-04-02T02:31:05.227Z,0
2017-04-02T02:32:14.822Z,0
2017-04-02T02:33:24.144Z,0
2017-04-02T02:34:33.908Z,0
2017-04-02T02:35:43.836Z,0
2017-04-02T02:36:54.054Z,0
2017-04-02T02:38:03.947Z,0
2017-04-02T02:39:13.886Z,0
2017-04-02T02:40:23.300Z,0
2017-04-02T02:41:32.889Z,0
2017-04-02T02:42:42.182Z,0
2017-04-02T02:43:52.080Z,0
2017-04-02T02:45:01.676Z,0
2017-04-02T02:46:12.038Z,0
2017-04-02T02:47:21.947Z,0
2017-04-02T02:48:31.255Z,0
2017-04-02T02:49:41.156Z,0
2017-04-02T02:50:51.364Z,0
2017-04-02T02:52:01.471Z,0
2017-04-02T02:53:11.700Z,0
2017-04-02T02:54:21.921Z,0
2017-04-02T02:55:32.133Z,0
2017-04-02T02:56:42.052Z,0
2017-04-02T02:57:52.114Z,0
2017-04-02T02:59:02.023Z,0
2017-04-02T03:00:11.934Z,0
2017-04-02T03:01:22.163Z,0
2017-04-02T03:02:32.078Z,0
2017-04-02T03:03:42.159Z,0
2017-04-02T03:04:51.762Z,0
2017-04-02T03:06:01.671Z,0
2017-04-02T03:07:11.595Z,0
2017-04-02T03:08:21.195Z,0
2017-04-02T03:09:30.961Z,0
2017-04-02T03:10:40.571Z,0
2017-04-02T03:11:50.775Z,0
2017-04-02T03:13:00.371Z,0
2017-04-02T03:14:10.009Z,0
2017-04-02T03:15:19.467Z,0
2017-04-02T03:16:29.369Z,0
2017-04-02T03:17:39.288Z,0
2017-04-02T03:18:49.206Z,0
2017-04-02T03:19:59.461Z,0
2017-04-02T03:21:09.834Z,0
2017-04-02T03:22:19.742Z,0
2017-04-02T03:23:29.659Z,0
2017-04-02T03:24:39.571Z,0
2017-04-02T03:25:49.480Z,0
2017-04-02T03:26:59.536Z,0
2017-04-02T03:28:09.748Z,0
2017-04-02T03:29:19.954Z,0
2017-04-02T03:30:29.866Z,0
2017-04-02T03:31:39.462Z,0
2017-04-02T03:32:49.840Z,0
2017-04-02T03:34:18.697Z,0
2017-04-02T03:35:28.305Z,0
2017-04-02T03:36:37.281Z,0
2017-04-02T03:37:47.036Z,0
2017-04-02T03:38:56.948Z,0
2017-04-02T03:40:06.551Z,0
2017-04-02T03:41:16.160Z,0
2017-04-02T03:42:26.070Z,0
2017-04-02T03:43:35.513Z,0
2017-04-02T03:44:45.722Z,0
2017-04-02T03:45:55.323Z,0
2017-04-02T03:47:05.228Z,0
2017-04-02T03:48:15.447Z,0
2017-04-02T03:49:25.953Z,0
2017-04-02T03:50:35.858Z,0
2017-04-02T03:51:45.457Z,0
2017-04-02T03:52:55.369Z,0
2017-04-02T03:54:05.271Z,0
2017-04-02T03:55:15.333Z,0
2017-04-02T03:56:25.237Z,0
2017-04-02T03:57:35.447Z,0
2017-04-02T03:58:45.360Z,0
2017-04-02T03:59:54.654Z,0
2017-04-02T04:01:04.264Z,0
2017-04-02T04:02:14.483Z,0
2017-04-02T04:03:24.399Z,0
2017-04-02T04:04:34.654Z,0
2017-04-02T04:05:44.869Z,0
2017-04-02T04:06:55.428Z,0
2017-04-02T04:08:05.340Z,0
2017-04-02T04:09:14.943Z,0
2017-04-02T04:10:25.155Z,0
2017-04-02T04:11:35.060Z,0
2017-04-02T04:12:44.717Z,0
2017-04-02T04:13:54.938Z,0
2017-04-02T04:15:05.241Z,0
2017-04-02T04:16:14.942Z,0
2017-04-02T04:17:25.161Z,0
2017-04-02T04:18:35.416Z,0
2017-04-02T04:19:45.661Z,0
2017-04-02T04:20:56.250Z,0
2017-04-02T04:22:06.171Z,0
2017-04-02T04:23:15.773Z,0
2017-04-02T04:24:26.031Z,0
2017-04-02T04:25:35.939Z,0
2017-04-02T04:26:45.840Z,0
2017-04-02T04:27:56.051Z,0
2017-04-02T04:29:06.260Z,0
2017-04-02T04:30:16.019Z,0
2017-04-02T04:31:26.236Z,0
2017-04-02T04:32:36.134Z,0
2017-04-02T04:33:46.056Z,0
2017-04-02T04:34:55.966Z,0
2017-04-02T04:36:06.025Z,0
2017-04-02T04:37:16.233Z,0
2017-04-02T04:38:26.461Z,0
2017-04-02T04:39:36.067Z,0
2017-04-02T04:40:45.355Z,0
2017-04-02T04:41:55.613Z,0
2017-04-02T04:43:05.509Z,0
2017-04-02T04:44:15.713Z,0
2017-04-02T04:45:25.628Z,4
2017-04-02T04:46:35.564Z,4
2017-04-02T04:47:45.762Z,4
2017-04-02T04:48:55.658Z,0
2017-04-02T04:50:05.582Z,4
2017-04-02T04:51:15.792Z,4
2017-04-02T04:52:25.695Z,4
2017-04-02T04:53:36.059Z,8
2017-04-02T04:54:45.658Z,4
2017-04-02T04:55:55.871Z,4
2017-04-02T04:57:06.085Z,8
2017-04-02T04:58:15.379Z,12
2017-04-02T04:59:26.739Z,8
2017-04-02T05:00:36.945Z,12
2017-04-02T05:01:46.542Z,12
2017-04-02T05:02:56.148Z,12
2017-04-02T05:04:06.352Z,16
2017-04-02T05:05:17.281Z,20
2017-04-02T05:06:26.591Z,20
2017-04-02T05:07:36.506Z,20
2017-04-02T05:08:46.728Z,24
2017-04-02T05:09:56.964Z,24
2017-04-02T05:11:08.530Z,24
2017-04-02T05:12:18.434Z,28
2017-04-02T05:13:28.321Z,32
2017-04-02T05:14:37.925Z,40
2017-04-02T05:15:48.137Z,44
2017-04-02T05:16:58.161Z,48
2017-04-02T05:18:07.768Z,52
2017-04-02T05:19:17.423Z,56
2017-04-02T05:20:27.037Z,64
2017-04-02T05:21:36.628Z,72
2017-04-02T05:22:46.683Z,80
2017-04-02T05:23:56.281Z,88
2017-04-02T05:25:05.278Z,96
2017-04-02T05:26:15.491Z,100
2017-04-02T05:27:25.092Z,104
2017-04-02T05:28:35.614Z,112
2017-04-02T05:29:45.519Z,116
2017-04-02T05:30:55.478Z,120
2017-04-02T05:32:05.385Z,128
2017-04-02T05:33:15.590Z,132
2017-04-02T05:34:25.978Z,140
2017-04-02T05:35:35.599Z,148
2017-04-02T05:36:45.501Z,160
2017-04-02T05:37:55.710Z,172
2017-04-02T05:39:05.636Z,192
2017-04-02T05:40:15.278Z,208
2017-04-02T05:41:25.572Z,220
2017-04-02T05:42:35.180Z,224
2017-04-02T05:43:45.092Z,232
2017-04-02T05:44:54.697Z,240
2017-04-02T05:46:05.121Z,260
2017-04-02T05:47:14.405Z,276
2017-04-02T05:48:24.326Z,292
2017-04-02T05:49:33.616Z,312
2017-04-02T05:50:43.519Z,336
2017-04-02T05:51:53.722Z,360
2017-04-02T05:53:03.625Z,380
2017-04-02T05:54:13.537Z,400
2017-04-02T05:55:23.452Z,416
2017-04-02T05:56:33.364Z,440
2017-04-02T05:57:43.893Z,500
2017-04-02T05:58:53.793Z,528
2017-04-02T06:00:04.048Z,548
2017-04-02T06:01:13.965Z,588
2017-04-02T06:02:23.572Z,620
2017-04-02T06:03:34.833Z,688
2017-04-02T06:04:45.058Z,740
2017-04-02T06:05:54.701Z,780
2017-04-02T06:07:05.031Z,796
2017-04-02T06:08:14.651Z,764
2017-04-02T06:09:26.057Z,812
2017-04-02T06:10:35.963Z,884
2017-04-02T06:11:46.172Z,876
2017-04-02T06:12:56.073Z,928
2017-04-02T06:14:05.983Z,1024
2017-04-02T06:15:15.622Z,1148
2017-04-02T06:16:25.544Z,1260
2017-04-02T06:17:35.760Z,1344
2017-04-02T06:18:46.040Z,1368
2017-04-02T06:19:55.638Z,1428
2017-04-02T06:21:05.891Z,1464
2017-04-02T06:22:15.486Z,1476
2017-04-02T06:23:25.402Z,1440
2017-04-02T06:24:35.650Z,1404
2017-04-02T06:25:45.547Z,1420
2017-04-02T06:26:55.466Z,1588
2017-04-02T06:28:05.096Z,1732
2017-04-02T06:29:14.688Z,1860
2017-04-02T06:30:24.612Z,1920
2017-04-02T06:31:34.512Z,1876
2017-04-02T06:32:44.712Z,1864
2017-04-02T06:33:54.310Z,1792
2017-04-02T06:35:04.535Z,1616
2017-04-02T06:36:14.444Z,1448
2017-04-02T06:37:24.655Z,1456
2017-04-02T06:38:34.969Z,1480
2017-04-02T06:39:45.199Z,1512
2017-04-02T06:40:55.417Z,1496
2017-04-02T06:42:04.736Z,1532
2017-04-02T06:43:14.354Z,1616
2017-04-02T06:44:24.107Z,1752
2017-04-02T06:45:34.329Z,1904
2017-04-02T06:46:43.925Z,2256
2017-04-02T06:47:54.136Z,2656
2017-04-02T06:49:04.260Z,2904
2017-04-02T06:50:14.012Z,3208
2017-04-02T06:51:23.627Z,3348
2017-04-02T06:52:33.526Z,3420
2017-04-02T06:53:43.742Z,3428
2017-04-02T06:54:53.936Z,3436
2017-04-02T06:56:04.849Z,3548
2017-04-02T06:57:14.757Z,3616
2017-04-02T06:58:24.658Z,3584
2017-04-02T06:59:34.559Z,3504
2017-04-02T07:00:44.474Z,3360
2017-04-02T07:01:54.237Z,3264
2017-04-02T07:03:04.148Z,3244
2017-04-02T07:04:13.535Z,3192
2017-04-02T07:05:23.531Z,3124
2017-04-02T07:06:34.564Z,3176
2017-04-02T07:07:45.154Z,3028
2017-04-02T07:08:54.831Z,2904
2017-04-02T07:10:05.157Z,2896
2017-04-02T07:11:15.061Z,2964
2017-04-02T07:12:24.841Z,2724
2017-04-02T07:13:36.878Z,2676
2017-04-02T07:14:46.881Z,2092
2017-04-02T07:15:57.828Z,2008
2017-04-02T07:17:08.114Z,2284
2017-04-02T07:18:18.298Z,2592
2017-04-02T07:19:28.564Z,2764
2017-04-02T07:20:38.479Z,2780
2017-04-02T07:21:48.689Z,2868
2017-04-02T07:22:59.171Z,3100
2017-04-02T07:24:09.800Z,3156
2017-04-02T07:25:20.202Z,3212
2017-04-02T07:26:29.864Z,3220
2017-04-02T07:27:40.080Z,3244
2017-04-02T07:28:50.005Z,3172
2017-04-02T07:29:59.600Z,3256
2017-04-02T07:31:10.178Z,3412
2017-04-02T07:32:20.856Z,3436
2017-04-02T07:33:30.785Z,3468
2017-04-02T07:34:40.687Z,3496
2017-04-02T07:35:50.889Z,3480
2017-04-02T07:37:01.896Z,3412
2017-04-02T07:38:12.128Z,3308
2017-04-02T07:39:22.347Z,3216
2017-04-02T07:40:32.261Z,3192
2017-04-02T07:41:42.478Z,3160
2017-04-02T07:42:52.549Z,3160
2017-04-02T07:44:02.170Z,3232
2017-04-02T07:45:12.091Z,3288
2017-04-02T07:46:22.320Z,3300
2017-04-02T07:47:31.671Z,3304
2017-04-02T07:48:41.990Z,3260
2017-04-02T07:49:51.937Z,3184
2017-04-02T07:51:01.559Z,3140
2017-04-02T07:52:11.478Z,3016
2017-04-02T07:53:21.072Z,3000
2017-04-02T07:54:31.346Z,2836
2017-04-02T07:55:40.951Z,2784
2017-04-02T07:56:50.875Z,3024
2017-04-02T07:58:00.792Z,3276
2017-04-02T07:59:11.026Z,3272
2017-04-02T08:00:21.988Z,3252
2017-04-02T08:01:32.202Z,3144
2017-04-02T08:02:41.799Z,3044
2017-04-02T08:03:52.025Z,2952
2017-04-02T08:05:01.940Z,2920
2017-04-02T08:06:11.656Z,2932
2017-04-02T08:07:21.568Z,2892
2017-04-02T08:08:31.196Z,2868
2017-04-02T08:09:41.425Z,2864
2017-04-02T08:10:51.337Z,2880
2017-04-02T08:12:01.258Z,2872
2017-04-02T08:13:10.554Z,2860
2017-04-02T08:14:20.757Z,2864
2017-04-02T08:15:30.672Z,2852
2017-04-02T08:16:40.888Z,2820
2017-04-02T08:17:51.096Z,2792
2017-04-02T08:19:01.307Z,2780
2017-04-02T08:20:11.219Z,2776
2017-04-02T08:21:21.479Z,2748
2017-04-02T08:22:30.514Z,2568
2017-04-02T08:23:39.954Z,2464
2017-04-02T08:24:49.897Z,2480
2017-04-02T08:25:59.810Z,2524
2017-04-02T08:27:09.738Z,2520
2017-04-02T08:28:19.037Z,2568
2017-04-02T08:29:29.305Z,2600
2017-04-02T08:30:39.225Z,2608
2017-04-02T08:31:49.152Z,2592
2017-04-02T08:32:58.775Z,2580
2017-04-02T08:34:08.687Z,2556
2017-04-02T08:35:18.799Z,2560
2017-04-02T08:36:29.026Z,2568
2017-04-02T08:37:38.941Z,2560
2017-04-02T08:38:49.159Z,2536
2017-04-02T08:39:59.075Z,2500
2017-04-02T08:41:09.297Z,2484
2017-04-02T08:42:18.585Z,2472
2017-04-02T08:43:28.492Z,2452
2017-04-02T08:44:38.398Z,2440
2017-04-02T08:45:48.615Z,2412
2017-04-02T08:46:58.796Z,2380
2017-04-02T08:48:10.644Z,2360
2017-04-02T08:49:21.233Z,2340
2017-04-02T08:50:32.151Z,2332
2017-04-02T08:51:42.842Z,2324
2017-04-02T08:52:52.457Z,2312
2017-04-02T08:54:02.717Z,2284
2017-04-02T08:55:13.042Z,2240
2017-04-02T08:56:22.688Z,2168
2017-04-02T08:57:32.314Z,2160
2017-04-02T08:58:43.074Z,2228
2017-04-02T08:59:52.987Z,2236
2017-04-02T09:01:02.891Z,2240
2017-04-02T09:02:12.815Z,2220
2017-04-02T09:03:22.761Z,2232
2017-04-02T09:04:34.147Z,2252
2017-04-02T09:05:44.072Z,2248
2017-04-02T09:06:54.289Z,2244
2017-04-02T09:08:03.896Z,2264
2017-04-02T09:09:13.533Z,2272
2017-04-02T09:10:24.503Z,2256
2017-04-02T09:11:34.498Z,2236
2017-04-02T09:12:44.119Z,2208
2017-04-02T09:13:54.346Z,2176
2017-04-02T09:15:04.608Z,2136
2017-04-02T09:16:14.360Z,2096
2017-04-02T09:17:24.635Z,2064
2017-04-02T09:18:33.933Z,2064
2017-04-02T09:19:43.527Z,2060
2017-04-02T09:20:53.439Z,2072
2017-04-02T09:22:03.502Z,2052
2017-04-02T09:23:13.749Z,2040
2017-04-02T09:24:23.354Z,2060
2017-04-02T09:25:33.589Z,2052
2017-04-02T09:26:44.211Z,2048
2017-04-02T09:27:55.600Z,2048
2017-04-02T09:29:06.868Z,2008
2017-04-02T09:30:16.788Z,1980
2017-04-02T09:31:26.801Z,1996
2017-04-02T09:32:37.491Z,2000
2017-04-02T09:33:48.079Z,1996
2017-04-02T09:34:58.081Z,2024
2017-04-02T09:36:07.886Z,2036
2017-04-02T09:37:17.851Z,2020
2017-04-02T09:38:27.450Z,1996
2017-04-02T09:39:37.952Z,1972
2017-04-02T09:40:47.560Z,1940
2017-04-02T09:41:57.470Z,1916
2017-04-02T09:43:07.098Z,1892
2017-04-02T09:44:17.295Z,1868
2017-04-02T09:45:27.695Z,1864
2017-04-02T09:46:37.908Z,1872
2017-04-02T09:47:48.113Z,1936
2017-04-02T09:48:57.708Z,2008
2017-04-02T09:50:07.953Z,2024
2017-04-02T09:51:17.708Z,1996
2017-04-02T09:52:27.934Z,1904
2017-04-02T09:53:37.222Z,1800
2017-04-02T09:54:47.446Z,1848
2017-04-02T09:55:57.651Z,1736
2017-04-02T09:57:07.369Z,1784
2017-04-02T09:58:17.285Z,1808
2017-04-02T09:59:27.521Z,1744
2017-04-02T10:00:37.768Z,1728
2017-04-02T10:01:47.694Z,1780
2017-04-02T10:02:58.664Z,1804
2017-04-02T10:04:08.009Z,1752
2017-04-02T10:05:17.941Z,1720
2017-04-02T10:06:27.851Z,1708
2017-04-02T10:07:37.778Z,1776
2017-04-02T10:08:47.855Z,1828
2017-04-02T10:09:57.759Z,1900
2017-04-02T10:11:07.422Z,1976
2017-04-02T10:12:17.377Z,1984
2017-04-02T10:13:27.603Z,1964
2017-04-02T10:14:37.929Z,1924
2017-04-02T10:15:47.898Z,1880
2017-04-02T10:16:57.842Z,1848
2017-04-02T10:18:07.797Z,1856
2017-04-02T10:19:17.454Z,1840
2017-04-02T10:20:27.099Z,1760
2017-04-02T10:21:37.033Z,1708
2017-04-02T10:22:46.941Z,1656
2017-04-02T10:23:56.859Z,1672
2017-04-02T10:25:07.132Z,1684
2017-04-02T10:26:17.363Z,1700
2017-04-02T10:27:27.294Z,1656
2017-04-02T10:28:37.527Z,1732
2017-04-02T10:29:47.749Z,1620
2017-04-02T10:30:57.653Z,1588
2017-04-02T10:32:07.865Z,1604
2017-04-02T10:33:17.780Z,1584
2017-04-02T10:34:27.996Z,1568
2017-04-02T10:35:37.643Z,1520
2017-04-02T10:36:47.260Z,1512
2017-04-02T10:37:57.824Z,1552
2017-04-02T10:39:07.443Z,1580
2017-04-02T10:40:17.678Z,1592
2017-04-02T10:41:27.898Z,1728
2017-04-02T10:42:37.506Z,1880
2017-04-02T10:43:47.205Z,2004
2017-04-02T10:44:57.102Z,2252
2017-04-02T10:46:06.709Z,2076
2017-04-02T10:47:15.699Z,1964
2017-04-02T10:48:25.627Z,1800
2017-04-02T10:49:36.140Z,1660
2017-04-02T10:50:45.748Z,1596
2017-04-02T10:51:55.451Z,1568
2017-04-02T10:53:05.352Z,1636
2017-04-02T10:54:14.654Z,1868
2017-04-02T10:55:24.922Z,1812
2017-04-02T10:56:35.169Z,1832
2017-04-02T10:57:45.381Z,1800
2017-04-02T10:58:55.593Z,1848
2017-04-02T11:00:04.894Z,1788
2017-04-02T11:01:15.153Z,1720
2017-04-02T11:02:25.064Z,1688
2017-04-02T11:03:34.673Z,1572
2017-04-02T11:04:44.584Z,1532
2017-04-02T11:05:54.499Z,1608
2017-04-02T11:07:05.238Z,1628
2017-04-02T11:08:14.844Z,1540
2017-04-02T11:09:24.139Z,1496
2017-04-02T11:10:33.748Z,1444
2017-04-02T11:11:43.671Z,1352
2017-04-02T11:12:53.907Z,1352
2017-04-02T11:14:03.256Z,1460
2017-04-02T11:15:13.473Z,1320
2017-04-02T11:16:23.131Z,1380
2017-04-02T11:17:32.748Z,1428
2017-04-02T11:18:42.771Z,1376
2017-04-02T11:19:52.416Z,1804
2017-04-02T11:21:02.345Z,1876
2017-04-02T11:22:12.314Z,1812
2017-04-02T11:23:21.945Z,1588
2017-04-02T11:24:31.975Z,1520
2017-04-02T11:25:42.202Z,1552
2017-04-02T11:26:52.089Z,1376
2017-04-02T11:28:01.983Z,1364
2017-04-02T11:29:12.053Z,1332
2017-04-02T11:30:23.459Z,1328
2017-04-02T11:31:33.678Z,1320
2017-04-02T11:32:44.114Z,1296
2017-04-02T11:33:55.099Z,1276
2017-04-02T11:35:04.704Z,1264
2017-04-02T11:36:14.316Z,1264
2017-04-02T11:37:24.301Z,1284
2017-04-02T11:38:35.008Z,1328
2017-04-02T11:39:44.625Z,1356
2017-04-02T11:40:54.922Z,1452
2017-04-02T11:42:04.966Z,1496
2017-04-02T11:43:15.064Z,1484
2017-04-02T11:44:25.317Z,1684
2017-04-02T11:45:35.064Z,1736
2017-04-02T11:46:45.012Z,1776
2017-04-02T11:47:54.830Z,1808
2017-04-02T11:49:05.128Z,1888
2017-04-02T11:50:15.301Z,1880
2017-04-02T11:51:25.498Z,1856
2017-04-02T11:52:35.102Z,1832
2017-04-02T11:53:44.744Z,1828
2017-04-02T11:54:54.980Z,1876
2017-04-02T11:56:04.730Z,1932
2017-04-02T11:57:15.034Z,1812
2017-04-02T11:58:24.732Z,1832
2017-04-02T11:59:34.336Z,1864
2017-04-02T12:00:44.277Z,1940
2017-04-02T12:01:54.506Z,1880
2017-04-02T12:03:04.832Z,1792
2017-04-02T12:04:15.119Z,1712
2017-04-02T12:05:25.437Z,1648
2017-04-02T12:06:35.462Z,1588
2017-04-02T12:07:46.395Z,1548
2017-04-02T12:08:55.399Z,1576
2017-04-02T12:10:05.090Z,1612
2017-04-02T12:11:15.058Z,1652
2017-04-02T12:12:24.966Z,1808
2017-04-02T12:13:35.346Z,2144
2017-04-02T12:14:45.829Z,2364
2017-04-02T12:15:56.071Z,2352
2017-04-02T12:17:05.998Z,2292
2017-04-02T12:18:16.007Z,2272
2017-04-02T12:19:25.816Z,2176
2017-04-02T12:20:35.739Z,2156
2017-04-02T12:21:45.685Z,2148
2017-04-02T12:22:55.815Z,2220
2017-04-02T12:24:05.775Z,2460
2017-04-02T12:25:15.797Z,2600
2017-04-02T12:26:25.406Z,2556
2017-04-02T12:27:35.855Z,2428
2017-04-02T12:28:45.591Z,2296
2017-04-02T12:29:54.884Z,2136
2017-04-02T12:31:05.425Z,2024
2017-04-02T12:32:15.357Z,2000
2017-04-02T12:33:25.220Z,1928
2017-04-02T12:34:35.216Z,1844
2017-04-02T12:35:44.845Z,1832
2017-04-02T12:36:55.950Z,1852
2017-04-02T12:38:06.444Z,1884
2017-04-02T12:39:16.385Z,1896
2017-04-02T12:40:27.226Z,1992
2017-04-02T12:41:37.126Z,2136
2017-04-02T12:42:47.754Z,2172
2017-04-02T12:43:58.131Z,2060
2017-04-02T12:45:08.449Z,1904
2017-04-02T12:46:18.702Z,1772
2017-04-02T12:47:28.462Z,1720
2017-04-02T12:48:40.002Z,1572
2017-04-02T12:49:49.989Z,1544
2017-04-02T12:50:59.637Z,1688
2017-04-02T12:52:08.660Z,1680
2017-04-02T12:53:18.284Z,1692
2017-04-02T12:54:28.496Z,1724
2017-04-02T12:55:38.116Z,1724
2017-04-02T12:56:47.744Z,1680
2017-04-02T12:57:57.981Z,1640
2017-04-02T12:59:08.217Z,1640
2017-04-02T13:00:18.700Z,1660
2017-04-02T13:01:28.572Z,1656
2017-04-02T13:02:38.510Z,1620
2017-04-02T13:03:48.227Z,1576
2017-04-02T13:04:57.619Z,1572
2017-04-02T13:06:08.240Z,1568
2017-04-02T13:07:17.840Z,1544
2017-04-02T13:08:28.144Z,1536
2017-04-02T13:09:37.769Z,1464
2017-04-02T13:10:46.754Z,1368
2017-04-02T13:11:57.936Z,1260
2017-04-02T13:13:07.794Z,1128
2017-04-02T13:14:17.815Z,1132
2017-04-02T13:15:28.519Z,1104
2017-04-02T13:16:38.459Z,1120
2017-04-02T13:17:49.431Z,1176
2017-04-02T13:18:59.379Z,1228
2017-04-02T13:20:08.996Z,1272
2017-04-02T13:21:19.239Z,1372
2017-04-02T13:22:29.866Z,1576
2017-04-02T13:23:40.082Z,1604
2017-04-02T13:24:50.279Z,1636
2017-04-02T13:25:59.892Z,1688
2017-04-02T13:27:10.160Z,1640
2017-04-02T13:28:20.395Z,1616
2017-04-02T13:29:30.703Z,1648
2017-04-02T13:30:39.693Z,1656
2017-04-02T13:31:50.330Z,1632
2017-04-02T13:33:00.231Z,1644
2017-04-02T13:34:10.528Z,1700
2017-04-02T13:35:21.043Z,1708
2017-04-02T13:36:30.942Z,1704
2017-04-02T13:37:40.911Z,1732
2017-04-02T13:38:51.107Z,1852
2017-04-02T13:40:01.265Z,2000
2017-04-02T13:41:11.512Z,2056
2017-04-02T13:42:21.507Z,2072
2017-04-02T13:43:31.413Z,2072
2017-04-02T13:44:41.705Z,2104
2017-04-02T13:45:51.396Z,2204
2017-04-02T13:47:01.460Z,2244
2017-04-02T13:48:11.683Z,2264
2017-04-02T13:49:22.023Z,2288
2017-04-02T13:50:31.706Z,2312
2017-04-02T13:51:41.389Z,2388
2017-04-02T13:52:51.853Z,2420
2017-04-02T13:54:02.070Z,2432
2017-04-02T13:55:12.209Z,2408
2017-04-02T13:56:22.431Z,2396
2017-04-02T13:57:32.357Z,2404
2017-04-02T13:58:43.643Z,2372
2017-04-02T13:59:53.396Z,2344
2017-04-02T14:01:03.329Z,2356
2017-04-02T14:02:13.951Z,2268
2017-04-02T14:03:23.998Z,2156
2017-04-02T14:04:34.624Z,2004
2017-04-02T14:05:44.677Z,2040
2017-04-02T14:06:54.886Z,2108
2017-04-02T14:08:04.815Z,2112
2017-04-02T14:09:14.237Z,2040
2017-04-02T14:10:23.856Z,1920
2017-04-02T14:11:33.783Z,1820
2017-04-02T14:12:44.100Z,1696
2017-04-02T14:13:53.761Z,1420
2017-04-02T14:15:03.482Z,1396
2017-04-02T14:16:13.734Z,1384
2017-04-02T14:17:23.674Z,1556
2017-04-02T14:18:34.356Z,1560
2017-04-02T14:19:45.403Z,1556
2017-04-02T14:20:55.647Z,1560
2017-04-02T14:22:06.049Z,1544
2017-04-02T14:23:15.968Z,1572
2017-04-02T14:24:26.471Z,1604
2017-04-02T14:25:35.789Z,1672
2017-04-02T14:26:45.487Z,1652
2017-04-02T14:27:55.786Z,1644
2017-04-02T14:29:06.300Z,1676
2017-04-02T14:30:16.520Z,1700
2017-04-02T14:31:26.205Z,1720
2017-04-02T14:32:35.893Z,1708
2017-04-02T14:33:45.781Z,1720
2017-04-02T14:34:55.455Z,1776
2017-04-02T14:36:05.475Z,1848
2017-04-02T14:37:15.682Z,1916
2017-04-02T14:38:25.618Z,1968
2017-04-02T14:39:36.503Z,1948
2017-04-02T14:40:46.362Z,1888
2017-04-02T14:41:56.292Z,1888
2017-04-02T14:43:06.593Z,1708
2017-04-02T14:44:16.899Z,1636
2017-04-02T14:45:27.192Z,1640
2017-04-02T14:46:37.017Z,1668
2017-04-02T14:47:46.964Z,1648
2017-04-02T14:48:57.303Z,1648
2017-04-02T14:50:07.025Z,1664
2017-04-02T14:51:17.634Z,1652
2017-04-02T14:52:27.878Z,1648
2017-04-02T14:53:37.490Z,1620
2017-04-02T14:54:47.188Z,1576
2017-04-02T14:55:56.207Z,1552
2017-04-02T14:57:06.617Z,1548
2017-04-02T14:58:16.780Z,1540
2017-04-02T14:59:27.008Z,1488
2017-04-02T15:00:37.318Z,1436
2017-04-02T15:01:47.568Z,1380
2017-04-02T15:02:57.366Z,1320
2017-04-02T15:04:07.612Z,1256
2017-04-02T15:05:17.235Z,1176
2017-04-02T15:06:27.216Z,1108
2017-04-02T15:07:37.136Z,1056
2017-04-02T15:08:47.554Z,1048
2017-04-02T15:09:57.775Z,1064
2017-04-02T15:11:07.724Z,1108
2017-04-02T15:12:17.723Z,1180
2017-04-02T15:13:27.675Z,1244
2017-04-02T15:14:37.961Z,1260
2017-04-02T15:15:47.887Z,1256
2017-04-02T15:16:59.850Z,1256
2017-04-02T15:18:10.219Z,1272
2017-04-02T15:19:21.663Z,1284
2017-04-02T15:20:32.873Z,1296
2017-04-02T15:21:43.261Z,1312
2017-04-02T15:22:53.568Z,1352
2017-04-02T15:24:02.959Z,1388
2017-04-02T15:25:12.547Z,1408
2017-04-02T15:26:23.230Z,1416
2017-04-02T15:27:33.939Z,1400
2017-04-02T15:28:44.316Z,1380
2017-04-02T15:29:54.346Z,1428
2017-04-02T15:31:04.032Z,1436
2017-04-02T15:32:14.871Z,1436
2017-04-02T15:33:26.084Z,1424
2017-04-02T20:33:41.757Z,0
2017-04-02T20:34:51.973Z,0
2017-04-02T20:36:01.882Z,0
2017-04-02T20:37:11.787Z,0
2017-04-02T20:38:21.712Z,0
2017-04-02T20:39:32.069Z,0
2017-04-02T20:40:41.369Z,0
2017-04-02T20:41:51.566Z,0
2017-04-02T20:43:01.173Z,0
2017-04-02T20:44:11.389Z,0
2017-04-02T20:45:21.731Z,0
2017-04-02T20:46:32.144Z,0
2017-04-02T20:47:42.114Z,0
2017-04-02T20:48:52.029Z,0
2017-04-02T20:50:02.252Z,0
2017-04-02T20:51:12.844Z,0
2017-04-02T20:52:23.137Z,0
2017-04-02T20:53:32.775Z,0
2017-04-02T20:54:42.398Z,0
2017-04-02T20:55:52.331Z,0
2017-04-02T20:57:02.215Z,0
2017-04-02T20:58:12.130Z,4
2017-04-02T20:59:21.723Z,4
2017-04-02T21:00:31.922Z,0
2017-04-02T21:01:41.525Z,0
2017-04-02T21:02:51.238Z,0
2017-04-02T21:04:00.840Z,0
2017-04-02T21:05:11.067Z,0
2017-04-02T21:06:21.305Z,0
2017-04-02T21:07:30.932Z,0
2017-04-02T21:08:40.988Z,0